Gunnison, CO (81230)

4:44 PM MDT on August 30, 2015 (GMT -0600)
West Ruby Ave Weather | | Change Station
CLOSE
Current Station
Personal Weather Station
Location: Gunnison, CO
Elevation: 7713 ft
Nearby Weather Stations

Elev 7713 ft 38.55 °N, 106.93 °W | Updated 38 seconds ago

Mostly Cloudy
Mostly Cloudy
72.7 °F
Feels Like 76 °F
N
5.0
Wind Variable Wind from SSW
Gusts 12.0 mph

Today
High -- | Low -- °F
--% Chance of Precip.
Yesterday
High -- | Low -- °F
Precip. -- in
6:35 AM 7:41 PM
Full, 98% visible
Pressure 30.30 in
Visibility 10.0 miles
Clouds Mostly Cloudy 10000 ft
Heat Index 76 °F
Dew Point 40 °F
Humidity 31%
Rainfall in
Snow Depth Not available.
UV 0.0 out of 12
Pollen 9.90 out of 12
Air Quality Not available.
Flu Activity Not available.
METAR KGUC 302235Z AUTO 19013G19KT 10SM BKN100 23/04 A3030 RMK AO1
Pressure 30.30 in
Visibility 10.0 miles
Clouds Mostly Cloudy 10000 ft
Heat Index 76 °F
Dew Point 40 °F
Humidity 31%
Rainfall in
Snow Depth Not available.
UV 0.0 out of 12
Pollen 9.90 out of 12
Air Quality Not available.
Flu Activity Not available.
METAR KGUC 302235Z AUTO 19013G19KT 10SM BKN100 23/04 A3030 RMK AO1

10-Day Weather Forecast

×

Almanac

Astronomy

Aug. 30, 2015 Rise Set
Actual Time
Civil Twilight
Nautical Twilight
Astronomical Twilight
Moon
Length of Visible Light
Length of Day
Tomorrow will be .
, % of the Moon is Illuminated

Today's Extremes

State Highs State Lows

Community

WunderPhotos

Upload Photos

1,851,075 photos uploaded!

WunderBlogs® & News

Nearby

Air Quality

  Air Quality AQ Index Pollutant
Not available.

Snow Depth

Station Depth Elevation

Earthquake Activity

City Distance Mag. Time & Date
Minimum magnitude displayed is 2.5.

Coastal Water Temperatures

Place Temperature

Stations

Nearby Weather Stations

Station Location Temp. Windchill Dew Point Humidity Wind Precip. Elev Updated Type